Time;durP1;ratioP1;P1;durP2;ratioP2;P2;SDS_P1;SDS_P2;PMS_P1;PMS_P2;Temp;Humidity;BMP_temperature;BMP_pressure;BME280_temperature;BME280_humidity;BME280_pressure;Samples;Min_cycle;Max_cycle;Signal;HPM_P1;HPM_P2
2021/04/02 00:02:07;;;;;;;;;;;;;;;3.71;74.31;93032.13;5049824;28;20500;-80
2021/04/02 00:04:34;;;;;;;11.65;6.32;;;;;;;3.60;74.50;93029.03;5049337;28;19924;-80
2021/04/02 00:07:01;;;;;;;;;;;;;;;3.53;76.37;93020.53;5049852;28;20045;-81
2021/04/02 00:09:27;;;;;;;6.70;4.68;;;;;;;3.40;76.80;93020.28;5049221;28;20284;-81
2021/04/02 00:11:54;;;;;;;8.77;5.45;;;;;;;3.26;78.87;93022.63;5049815;28;20048;-80
2021/04/02 00:14:20;;;;;;;11.80;6.78;;;;;;;3.15;79.92;93018.72;5049104;28;20518;-80
2021/04/02 00:16:46;;;;;;;;;;;;;;;3.17;78.84;93019.34;5049906;28;20068;-80
2021/04/02 00:19:12;;;;;;;7.13;5.45;;;;;;;3.25;78.12;93015.97;5049271;28;19927;-79
2021/04/02 00:21:38;;;;;;;;;;;;;;;3.28;77.97;93018.16;5061820;28;20122;-79
2021/04/02 00:24:06;;;;;;;11.95;4.45;;;;;;;3.23;78.34;93006.94;5048990;28;19931;-79
2021/04/02 00:26:32;;;;;;;9.13;4.45;;;;;;;3.25;78.01;93010.09;5049186;28;20071;-80
2021/04/02 00:28:59;;;;;;;7.50;3.95;;;;;;;3.24;78.44;93006.75;5049290;28;20099;-80
2021/04/02 00:31:25;;;;;;;9.13;4.80;;;;;;;3.16;78.12;92997.44;5049121;28;20480;-80
2021/04/02 00:33:51;;;;;;;;;;;;;;;3.32;77.56;93008.44;5049205;28;20103;-80
2021/04/02 00:36:18;;;;;;;9.48;5.47;;;;;;;3.27;77.90;93008.16;5049299;28;19921;-80
2021/04/02 00:38:44;;;;;;;11.90;4.95;;;;;;;3.21;78.60;93007.88;5051873;28;20519;-80
2021/04/02 00:41:14;;;;;;;9.05;4.65;;;;;;;3.14;79.04;93003.66;5052444;28;20497;-80
2021/04/02 00:43:43;;;;;;;10.43;4.55;;;;;;;3.03;79.11;93008.16;5053320;28;20060;-79
2021/04/02 00:46:10;;;;;;;6.65;3.50;;;;;;;3.07;78.92;93006.84;5053072;28;20423;-79
2021/04/02 00:48:37;;;;;;;8.48;4.32;;;;;;;3.05;79.17;93006.25;5053288;28;20049;-80
2021/04/02 00:51:06;;;;;;;5.97;4.03;;;;;;;2.68;80.60;92995.03;5064654;28;20064;-79
2021/04/02 00:53:37;;;;;;;6.85;3.97;;;;;;;2.57;80.76;92987.78;5071471;28;20041;-78
2021/04/02 00:56:05;;;;;;;4.97;3.65;;;;;;;2.51;81.15;92999.41;5071472;28;20088;-78
2021/04/02 00:58:35;;;;;;;7.45;3.28;;;;;;;2.71;79.70;92992.16;5070958;28;20044;-79
2021/04/02 01:01:01;;;;;;;10.38;4.63;;;;;;;2.82;79.08;92980.84;5071315;28;20048;-79
2021/04/02 01:03:28;;;;;;;7.60;3.80;;;;;;;3.03;77.89;92995.47;5071387;28;20411;-78
2021/04/02 01:05:56;;;;;;;9.38;3.28;;;;;;;2.97;78.27;92988.53;5071304;28;20389;-78
2021/04/02 01:08:25;;;;;;;5.13;3.17;;;;;;;2.98;78.35;92982.50;5071079;28;20052;-79
2021/04/02 01:10:54;;;;;;;9.43;4.70;;;;;;;3.01;77.84;92983.91;5070952;28;20075;-80
2021/04/02 01:13:26;;;;;;;9.10;3.67;;;;;;;3.04;77.42;92986.09;5071282;28;20064;-80
2021/04/02 01:15:58;;;;;;;7.70;3.22;;;;;;;2.94;77.89;92966.03;5071289;28;20044;-79
2021/04/02 01:18:30;;;;;;;5.07;3.30;;;;;;;2.96;77.55;92956.50;5070990;28;20585;-79
2021/04/02 01:20:59;;;;;;;16.33;4.07;;;;;;;3.04;77.98;92973.41;5070797;28;20528;-79
2021/04/02 01:23:29;;;;;;;11.18;6.45;;;;;;;3.05;78.18;92975.00;5070810;28;20419;-81
2021/04/02 01:26:05;;;;;;;20.00;6.13;;;;;;;2.88;77.09;92942.13;5071027;28;20044;-79
2021/04/02 01:28:58;;;;;;;11.10;4.85;;;;;;;2.95;78.93;92972.69;5070768;28;20048;-80
2021/04/02 01:31:26;;;;;;;11.07;5.28;;;;;;;3.13;77.13;92972.41;5070940;28;20098;-80
2021/04/02 01:33:54;;;;;;;27.25;9.25;;;;;;;2.92;78.14;92958.59;5070961;28;20045;-80
2021/04/02 01:36:22;;;;;;;17.92;7.95;;;;;;;2.92;78.78;92967.97;5070954;28;20055;-79
2021/04/02 01:38:50;;;;;;;17.85;7.47;;;;;;;2.91;80.23;92971.44;5070917;28;20421;-79
2021/04/02 01:41:17;;;;;;;17.30;6.90;;;;;;;2.88;79.38;92971.78;5071480;28;20055;-80
2021/04/02 01:43:45;;;;;;;8.43;4.57;;;;;;;2.78;81.78;92962.63;5070715;28;20109;-80
2021/04/02 01:46:14;;;;;;;9.35;4.97;;;;;;;2.60;83.21;92962.13;5070709;28;20048;-80
2021/04/02 01:48:43;;;;;;;15.23;4.43;;;;;;;2.41;84.83;92953.97;5070789;28;20431;-80
2021/04/02 01:51:12;;;;;;;17.38;6.05;;;;;;;2.22;85.41;92950.88;5070530;28;20064;-80
2021/04/02 01:53:41;;;;;;;15.90;6.00;;;;;;;2.08;86.72;92957.41;5070426;28;20058;-80
2021/04/02 01:56:08;;;;;;;15.15;6.07;;;;;;;1.94;88.00;92953.81;5070214;28;20075;-89
2021/04/02 01:58:38;;;;;;;16.48;6.85;;;;;;;2.03;87.15;92946.97;5070617;28;20053;-84
2021/04/02 02:01:06;;;;;;;12.82;5.32;;;;;;;2.26;85.60;92958.94;5070673;28;20052;-85
2021/04/02 02:04:19;;;;;;;11.27;5.72;;;;;;;1.62;85.11;92851.66;5070433;28;20059;-84
2021/04/02 02:13:44;;;;;;;9.10;4.75;;;;;;;1.96;86.19;92913.94;4961313;28;20090;-81
2021/04/02 02:16:32;;;;;;;;;;;;;;;;;;;;;
2021/04/02 02:26:26;;;;;;;;;;;;;;;;;;;;;
2021/04/02 03:36:32;;;;;;;10.30;4.83;;;;;;;2.09;88.76;92917.69;5100264;27;854022;-80
2021/04/02 03:39:00;;;;;;;6.82;4.55;;;;;;;2.07;88.51;92917.84;5106505;28;20062;-81
2021/04/02 03:41:28;;;;;;;6.28;4.18;;;;;;;1.94;88.57;92913.28;5106349;28;20052;-80
2021/04/02 03:43:55;;;;;;;9.27;5.50;;;;;;;1.92;88.59;92889.06;5106583;28;20071;-79
2021/04/02 03:46:23;;;;;;;16.80;6.50;;;;;;;2.08;88.32;92909.28;5106431;28;20496;-78
2021/04/02 03:48:50;;;;;;;14.20;5.78;;;;;;;2.14;88.08;92907.84;5096248;28;20060;-78
2021/04/02 03:51:21;;;;;;;14.57;8.27;;;;;;;2.17;88.07;92914.31;5084068;28;20048;-79
2021/04/02 03:53:54;;;;;;;13.02;6.60;;;;;;;2.30;86.23;92909.50;5084833;28;20048;-79
2021/04/02 03:56:25;;;;;;;10.50;4.97;;;;;;;2.17;85.85;92899.88;5085767;28;20052;-79
2021/04/02 03:58:55;;;;;;;13.15;6.28;;;;;;;2.33;85.85;92910.91;5086307;28;20048;-79
2021/04/02 04:01:24;;;;;;;9.85;5.80;;;;;;;2.41;84.99;92910.88;5086017;28;20055;-78
2021/04/02 04:03:52;;;;;;;10.38;5.78;;;;;;;2.56;83.66;92921.09;5085698;28;20052;-79
2021/04/02 04:06:20;;;;;;;7.38;4.07;;;;;;;2.41;84.85;92913.41;5086056;28;20053;-78
2021/04/02 04:08:53;;;;;;;13.50;7.35;;;;;;;2.30;86.23;92909.50;5085901;28;20097;-79
2021/04/02 04:11:22;;;;;;;13.75;6.22;;;;;;;2.12;87.29;92907.19;5085622;28;20488;-79
2021/04/02 04:13:50;;;;;;;23.95;12.05;;;;;;;2.12;87.88;92907.19;5085833;28;20048;-79
2021/04/02 04:16:21;;;;;;;11.23;6.80;;;;;;;1.85;88.73;92879.59;5085950;28;20056;-79
2021/04/02 04:18:49;;;;;;;32.58;18.25;;;;;;;1.78;90.51;92905.75;5085385;28;20054;-81
2021/04/02 04:21:18;;;;;;;67.05;24.13;;;;;;;1.57;91.96;92907.84;5085414;28;20055;-81
2021/04/02 04:23:44;;;;;;;52.33;20.98;;;;;;;1.67;91.94;92901.81;5085208;28;20090;-82
2021/04/02 04:26:13;;;;;;;83.03;27.45;;;;;;;1.22;92.04;92855.88;5085452;28;20127;-82
2021/04/02 04:28:42;;;;;;;43.55;18.98;;;;;;;1.65;92.42;92914.66;5085430;28;20044;-80
2021/04/02 04:31:09;;;;;;;26.50;11.40;;;;;;;1.58;92.93;92904.38;5085368;28;20048;-79
2021/04/02 04:33:38;;;;;;;44.05;18.13;;;;;;;1.61;92.74;92910.84;5085627;28;20127;-79
2021/04/02 04:36:08;;;;;;;30.25;10.55;;;;;;;1.47;93.74;92894.59;5079695;28;20048;-79
2021/04/02 04:38:38;;;;;;;16.02;9.13;;;;;;;1.62;93.10;92907.34;5071962;28;20402;-79
2021/04/02 04:41:06;;;;;;;16.23;10.85;;;;;;;1.58;93.36;92896.00;5071938;28;20071;-79
2021/04/02 04:43:34;;;;;;;16.88;8.95;;;;;;;1.59;93.94;92911.00;5071990;28;20455;-79
2021/04/02 04:46:01;;;;;;;18.90;10.80;;;;;;;1.66;93.41;92906.09;5071849;28;20412;-79
2021/04/02 04:48:28;;;;;;;18.67;10.77;;;;;;;1.76;93.05;92903.38;5071475;28;20045;-80
2021/04/02 04:50:55;;;;;;;23.95;11.00;;;;;;;1.87;92.57;92902.25;5071731;28;20053;-79
2021/04/02 04:53:25;;;;;;;23.50;13.32;;;;;;;1.93;91.77;92908.38;5071497;28;20048;-80
2021/04/02 04:55:55;;;;;;;24.88;12.40;;;;;;;2.12;89.20;92887.72;5071215;28;20118;-79
2021/04/02 04:58:28;;;;;;;19.17;10.52;;;;;;;2.29;89.24;92904.59;5071545;28;20414;-78
2021/04/02 05:00:57;;;;;;;19.10;11.00;;;;;;;2.40;87.76;92904.22;5066391;28;20531;-79
2021/04/02 05:03:27;;;;;;;16.90;8.55;;;;;;;2.51;87.99;92898.75;5069672;28;20110;-81
2021/04/02 05:05:57;;;;;;;16.38;9.70;;;;;;;2.68;85.97;92898.66;5071179;28;20147;-80
2021/04/02 05:08:28;;;;;;;15.10;7.82;;;;;;;2.86;86.00;92900.91;5071396;28;20052;-82
2021/04/02 05:10:56;;;;;;;17.33;8.38;;;;;;;2.75;85.33;92894.50;5071194;28;20519;-80
2021/04/02 05:13:25;;;;;;;14.75;7.38;;;;;;;2.76;86.67;92902.88;5071302;28;20051;-78
2021/04/02 05:15:52;;;;;;;19.23;10.15;;;;;;;2.85;86.87;92896.00;5071027;28;20048;-78
2021/04/02 05:18:20;;;;;;;18.55;9.38;;;;;;;2.86;86.44;92887.47;5071832;28;20052;-80
2021/04/02 05:20:47;;;;;;;16.33;9.40;;;;;;;3.06;84.72;92885.25;5071316;28;20049;-80
2021/04/02 05:23:15;;;;;;;14.07;8.40;;;;;;;3.25;84.13;92896.66;5071520;28;20098;-78
2021/04/02 05:25:41;;;;;;;16.50;9.07;;;;;;;3.48;83.08;92895.81;5070524;28;20052;-79
2021/04/02 05:28:08;;;;;;;34.45;9.30;;;;;;;3.86;81.50;92910.19;5070827;28;20048;-78
2021/04/02 05:30:36;;;;;;;28.90;10.20;;;;;;;3.85;81.45;92890.84;5070870;28;20037;-80
2021/04/02 05:33:03;;;;;;;23.80;11.52;;;;;;;3.88;82.33;92898.09;5070840;28;20056;-79
2021/04/02 05:35:30;;;;;;;26.83;12.98;;;;;;;4.07;81.60;92884.06;5070795;28;20106;-79
2021/04/02 05:37:56;;;;;;;48.33;15.45;;;;;;;4.22;81.33;92906.91;5071001;28;20048;-79
2021/04/02 05:40:22;;;;;;;;;;;;;;;4.30;81.00;92900.16;5071276;28;20041;-79
2021/04/02 05:42:55;;;;;;;27.40;15.20;;;;;;;4.19;80.95;92886.94;5070698;28;19927;-79
2021/04/02 05:45:28;;;;;;;48.50;18.23;;;;;;;4.25;79.78;92885.41;5070548;28;20052;-79
2021/04/02 05:48:02;;;;;;;86.70;30.42;;;;;;;4.25;80.17;92862.53;5069645;28;20102;-79
2021/04/02 05:50:32;;;;;;;53.00;20.05;;;;;;;4.43;79.11;92905.38;5070442;28;20048;-78
2021/04/02 05:53:04;;;;;;;31.63;13.13;;;;;;;4.54;78.49;92894.75;5070470;28;20052;-79
2021/04/02 05:55:33;;;;;;;39.13;15.85;;;;;;;4.95;78.34;92902.75;5070441;28;20071;-80
2021/04/02 05:58:01;;;;;;;43.67;19.25;;;;;;;5.27;78.58;92900.66;5069929;28;20056;-80
2021/04/02 06:00:28;;;;;;;31.10;13.05;;;;;;;5.48;77.71;92893.97;5070376;28;20401;-79
2021/04/02 06:02:56;;;;;;;26.55;12.90;;;;;;;5.71;77.49;92891.16;5070218;28;20413;-79
2021/04/02 06:05:22;;;;;;;24.95;11.25;;;;;;;6.04;73.99;92884.69;5070033;28;20056;-79
2021/04/02 06:07:50;;;;;;;24.30;10.18;;;;;;;6.39;71.83;92861.66;5069996;28;20041;-79
2021/04/02 06:10:18;;;;;;;17.40;8.85;;;;;;;7.11;71.67;92880.81;5069786;28;20055;-79
2021/04/02 06:12:45;;;;;;;12.98;6.03;;;;;;;7.87;65.75;92885.66;5069461;28;20049;-79
2021/04/02 06:15:12;;;;;;;4.72;2.83;;;;;;;8.46;61.30;92872.06;5069754;28;20570;-80
2021/04/02 06:18:07;;;;;;;4.95;2.20;;;;;;;9.17;59.18;92879.75;5069940;28;20040;-81
2021/04/02 06:20:47;;;;;;;3.97;2.13;;;;;;;9.49;55.51;92828.38;5070162;28;20071;-81
2021/04/02 06:23:22;;;;;;;10.38;2.85;;;;;;;10.40;54.11;92870.63;5070017;28;20067;-81
2021/04/02 08:02:11;;;;;;;2.63;1.63;;;;;;;16.62;37.58;92856.69;5049218;28;20534;-83
2021/04/02 08:05:14;;;;;;;4.97;2.35;;;;;;;16.66;37.17;92860.34;5049029;28;20049;-83
2021/04/02 08:11:26;;;;;;;12.73;5.20;;;;;;;17.27;36.98;92851.06;5007502;28;20139;-82
2021/04/02 08:53:41;;;;;;;12.07;5.50;;;;;;;18.42;36.50;92857.59;5009826;28;20384;-82
2021/04/02 08:58:55;;;;;;;28.38;10.00;;;;;;;18.35;36.87;92832.94;5026653;23;20064;-82
2021/04/02 09:01:22;;;;;;;10.65;5.10;;;;;;;18.52;35.85;92819.59;5012344;28;20050;-82
2021/04/02 09:03:49;;;;;;;5.18;3.53;;;;;;;18.65;35.28;92818.25;5011729;28;20120;-82
2021/04/02 09:06:16;;;;;;;10.88;4.68;;;;;;;19.03;34.92;92862.75;5011868;28;20453;-82
2021/04/02 09:08:52;;;;;;;20.10;8.52;;;;;;;19.29;35.29;92856.59;5011538;28;20041;-82
2021/04/02 09:31:20;;;;;;;4.75;2.70;;;;;;;18.21;36.36;92869.91;5048210;23;20970;-81
2021/04/02 09:37:07;;;;;;;6.68;2.85;;;;;;;18.22;38.13;92878.47;5028395;28;20056;-81
2021/04/02 09:39:36;;;;;;;4.47;2.05;;;;;;;17.57;38.73;92840.94;5035507;28;20558;-81
2021/04/02 09:42:05;;;;;;;3.60;2.20;;;;;;;17.31;39.25;92807.22;5071329;28;20104;-82
2021/04/02 09:44:33;;;;;;;3.78;2.58;;;;;;;17.69;38.86;92869.22;5070530;28;20049;-81
2021/04/02 09:47:05;;;;;;;3.22;1.98;;;;;;;17.34;39.64;92817.84;5070759;28;20058;-81
2021/04/02 09:50:10;;;;;;;4.40;2.50;;;;;;;17.65;41.06;92875.97;5070204;28;20045;-81
2021/04/02 09:52:38;;;;;;;5.70;2.10;;;;;;;17.38;40.14;92806.94;5070702;28;20509;-81
2021/04/02 09:55:06;;;;;;;6.13;2.45;;;;;;;17.25;41.04;92829.78;5070827;28;20049;-81
2021/04/02 09:57:33;;;;;;;4.90;2.70;;;;;;;17.22;41.24;92844.06;5070137;28;20056;-82
2021/04/02 09:59:59;;;;;;;6.20;3.00;;;;;;;16.28;43.81;92821.59;5070343;28;20051;-83
2021/04/02 10:05:09;;;;;;;4.18;2.65;;;;;;;15.89;47.22;92840.84;5069568;28;20044;-82
2021/04/02 10:07:35;;;;;;;3.53;2.38;;;;;;;15.83;48.81;92891.81;5070763;28;20113;-82
2021/04/02 10:10:02;;;;;;;3.83;2.17;;;;;;;15.66;50.44;92888.59;5069984;28;20052;-82
2021/04/02 10:15:18;;;;;;;4.78;2.45;;;;;;;15.06;49.40;92848.84;5047671;28;20106;-82
2021/04/02 10:17:45;;;;;;;3.72;3.00;;;;;;;14.96;49.72;92846.16;5064956;28;20052;-81
2021/04/02 10:20:12;;;;;;;5.70;2.83;;;;;;;14.70;48.29;92841.50;5069799;28;20040;-82
2021/04/02 10:22:38;;;;;;;3.70;2.00;;;;;;;14.87;48.56;92905.31;5069898;28;20059;-85
2021/04/02 10:40:48;;;;;;;4.65;2.67;;;;;;;13.58;55.89;92855.44;5055972;22;20126;-82
2021/04/02 11:04:47;;;;;;;9.20;4.50;;;;;;;12.21;79.60;92922.19;5099622;27;813063;-82
2021/04/02 11:07:13;;;;;;;11.05;4.88;;;;;;;12.41;80.60;92929.53;5106794;28;20112;-83
2021/04/02 11:09:39;;;;;;;;;;;;;;;12.49;79.72;92929.16;5106872;28;20048;-82
2021/04/02 11:12:07;;;;;;;5.35;3.42;;;;;;;12.45;77.25;92915.16;5106589;28;20368;-82
2021/04/02 11:14:33;;;;;;;13.57;6.25;;;;;;;12.16;76.86;92892.72;5106591;28;20439;-83
2021/04/02 11:16:59;;;;;;;;;;;;;;;12.50;75.87;92902.38;5106688;28;20059;-83
2021/04/02 11:19:25;;;;;;;11.70;5.60;;;;;;;12.28;74.54;92892.69;5106246;28;19920;-83
2021/04/02 11:21:52;;;;;;;;;;;;;;;12.62;74.51;92898.97;5107047;28;20052;-83
2021/04/02 11:24:19;;;;;;;7.82;5.00;;;;;;;12.98;75.63;92893.69;5106622;28;19919;-83
2021/04/02 11:26:45;;;;;;;;;;;;;;;13.39;72.43;92891.00;5106562;28;20052;-83
2021/04/02 11:29:11;;;;;;;5.45;4.22;;;;;;;13.56;70.80;92885.88;5106157;28;20376;-83
2021/04/02 11:31:37;;;;;;;;;;;;;;;13.95;69.49;92880.72;5106573;28;20047;-83
2021/04/02 11:34:03;;;;;;;7.25;3.97;;;;;;;14.21;68.94;92881.03;5105702;28;19924;-83
2021/04/02 11:36:30;;;;;;;;;;;;;;;14.37;67.68;92882.00;5106759;28;20044;-83
2021/04/02 11:38:57;;;;;;;6.50;3.97;;;;;;;14.38;68.63;92872.44;5105866;28;19920;-83
2021/04/02 11:41:23;;;;;;;4.65;3.08;;;;;;;14.34;67.23;92874.72;5106472;28;20043;-83
2021/04/02 11:43:50;;;;;;;6.70;4.18;;;;;;;14.28;66.33;92883.44;5107349;28;20052;-82
2021/04/02 11:46:17;;;;;;;9.52;3.75;;;;;;;14.42;65.01;92881.28;5106115;28;20047;-82
2021/04/02 11:48:44;;;;;;;6.25;4.43;;;;;;;14.49;65.36;92879.28;5105329;28;20044;-83
2021/04/02 11:51:10;;;;;;;5.97;4.20;;;;;;;14.62;64.84;92878.13;5106461;28;20055;-83
2021/04/02 11:53:36;;;;;;;;;;;;;;;14.74;64.89;92872.84;5093243;28;20515;-83
2021/04/02 11:56:04;;;;;;;9.55;4.70;;;;;;;14.77;64.40;92871.59;5086159;28;20276;-83
2021/04/02 11:58:31;;;;;;;10.60;4.75;;;;;;;14.88;62.90;92869.88;5085528;28;20052;-83
2021/04/02 12:00:57;;;;;;;;;;;;;;;15.08;63.11;92862.31;5086367;28;20098;-83
2021/04/02 12:03:23;;;;;;;9.95;4.95;;;;;;;15.20;63.03;92859.56;5085665;28;19928;-83
2021/04/02 12:05:49;;;;;;;;;;;;;;;15.43;61.39;92849.91;5072701;28;20405;-84
2021/04/02 12:08:16;;;;;;;11.95;3.90;;;;;;;15.72;61.60;92844.38;5072525;28;19927;-84
2021/04/02 12:10:44;;;;;;;7.88;3.60;;;;;;;15.94;59.62;92851.25;5072249;28;20060;-84
2021/04/02 12:13:12;;;;;;;5.82;3.85;;;;;;;15.90;60.42;92845.78;5072096;28;20070;-83
2021/04/02 12:15:38;;;;;;;6.80;4.95;;;;;;;16.09;59.39;92853.13;5072089;28;20424;-83
2021/04/02 12:18:07;;;;;;;8.13;4.15;;;;;;;16.09;57.37;92844.56;5071910;28;20071;-83
2021/04/02 12:20:34;;;;;;;7.10;4.32;;;;;;;16.14;58.15;92842.78;5071886;28;20052;-83
2021/04/02 12:23:00;;;;;;;5.65;3.35;;;;;;;15.99;57.22;92847.91;5072176;28;20048;-83
2021/04/02 12:25:26;;;;;;;;;;;;;;;16.03;58.00;92844.53;5060890;28;20114;-84
2021/04/02 12:27:52;;;;;;;8.55;3.40;;;;;;;15.96;56.77;92831.06;5066334;28;20372;-83
2021/04/02 12:30:20;;;;;;;;;;;;;;;15.98;55.59;92831.56;5072125;28;20270;-83
2021/04/02 12:32:46;;;;;;;4.82;3.20;;;;;;;16.01;55.83;92832.88;5069487;28;20391;-83
2021/04/02 12:35:13;;;;;;;5.95;3.58;;;;;;;16.07;55.59;92818.16;5071839;28;20049;-83
2021/04/02 12:37:40;;;;;;;5.50;3.55;;;;;;;16.08;55.62;92804.16;5071623;28;20133;-83
2021/04/02 12:40:10;;;;;;;6.00;3.58;;;;;;;16.48;54.91;92820.84;5065812;28;20560;-83
2021/04/02 12:42:36;;;;;;;6.07;3.78;;;;;;;16.77;55.33;92825.59;5060638;28;20072;-83
2021/04/02 12:45:04;;;;;;;;;;;;;;;16.81;52.83;92824.03;5071593;28;20048;-83
2021/04/02 12:47:31;;;;;;;5.50;3.70;;;;;;;16.49;53.32;92819.06;5071078;28;20383;-83
2021/04/02 12:49:57;;;;;;;7.05;3.25;;;;;;;16.42;53.57;92812.31;5071084;28;20063;-83
2021/04/02 12:52:24;;;;;;;9.30;4.60;;;;;;;16.73;53.72;92808.22;5070603;28;20088;-83
2021/04/02 12:58:03;;;;;;;5.68;3.13;;;;;;;15.79;53.08;92726.84;5036784;28;20052;-83
2021/04/02 13:01:14;;;;;;;11.30;2.90;;;;;;;16.10;51.99;92768.44;5071614;28;20064;-83
2021/04/02 13:03:42;;;;;;;7.47;3.05;;;;;;;16.60;54.50;92799.09;5071046;28;20052;-83
2021/04/02 13:06:08;;;;;;;7.13;2.75;;;;;;;16.72;52.85;92791.88;5071147;28;20052;-83
2021/04/02 13:08:35;;;;;;;5.25;3.15;;;;;;;16.56;53.18;92793.66;5071310;28;20226;-82
2021/04/02 13:11:01;;;;;;;5.13;3.15;;;;;;;16.61;52.74;92791.06;5070838;28;20067;-83
2021/04/02 13:13:28;;;;;;;8.45;3.00;;;;;;;16.64;51.37;92795.75;5071106;28;20052;-83
2021/04/02 13:15:54;;;;;;;4.10;2.17;;;;;;;16.83;52.58;92790.06;5069604;28;20055;-83
2021/04/02 13:18:20;;;;;;;5.72;2.60;;;;;;;16.80;51.28;92788.00;5070431;28;20049;-82
2021/04/02 13:20:47;;;;;;;;;;;;;;;16.34;53.38;92780.94;5071090;28;20044;-83
2021/04/02 13:23:13;;;;;;;7.72;3.40;;;;;;;16.47;52.76;92774.47;5070414;28;19924;-83
2021/04/02 13:25:40;;;;;;;7.35;3.05;;;;;;;16.62;52.83;92771.88;5070633;28;20048;-82
2021/04/02 13:28:06;;;;;;;8.70;2.72;;;;;;;17.00;51.28;92763.09;5070755;28;20098;-83
2021/04/02 13:30:34;;;;;;;8.23;3.42;;;;;;;17.25;51.15;92762.31;5070547;28;20044;-82
2021/04/02 13:33:02;;;;;;;7.47;2.88;;;;;;;17.68;50.31;92766.38;5070298;28;20053;-83
2021/04/02 13:35:30;;;;;;;5.47;3.05;;;;;;;17.79;48.02;92756.72;5070428;28;20103;-83
2021/04/02 13:37:59;;;;;;;6.47;2.53;;;;;;;17.47;50.02;92763.84;5070027;28;20049;-82
2021/04/02 13:40:27;;;;;;;4.63;2.80;;;;;;;17.43;48.29;92755.00;5069685;28;20056;-82
2021/04/02 13:42:54;;;;;;;7.43;2.85;;;;;;;17.59;48.88;92758.34;5069879;28;20078;-81
2021/04/02 13:45:20;;;;;;;3.10;2.30;;;;;;;17.36;48.39;92760.50;5070298;28;20053;-82
2021/04/02 13:47:48;;;;;;;2.88;2.25;;;;;;;17.49;48.83;92757.34;5069790;28;20048;-82
2021/04/02 13:50:17;;;;;;;4.13;2.20;;;;;;;17.59;48.49;92748.72;5069735;28;20049;-82
2021/04/02 13:52:46;;;;;;;5.55;2.30;;;;;;;17.76;48.28;92745.84;5069768;28;20059;-82
2021/04/02 13:55:15;;;;;;;5.55;2.08;;;;;;;17.83;47.92;92744.75;5069958;28;20493;-82
2021/04/02 13:57:42;;;;;;;7.28;2.80;;;;;;;18.05;47.92;92743.63;5070227;28;20053;-83
2021/04/02 14:00:11;;;;;;;29.73;10.45;;;;;;;18.24;47.04;92729.00;5070423;28;20071;-83
2021/04/02 14:02:38;;;;;;;45.22;15.07;;;;;;;18.34;46.14;92730.00;5069882;28;20512;-81
2021/04/02 14:05:06;;;;;;;25.65;8.95;;;;;;;18.46;45.90;92727.06;5069929;28;20056;-82
2021/04/02 14:07:32;;;;;;;11.02;5.60;;;;;;;18.62;46.00;92736.31;5067998;28;20098;-83
2021/04/02 14:09:59;;;;;;;4.60;2.60;;;;;;;18.41;44.61;92733.06;5069135;28;20040;-82
2021/04/02 14:12:26;;;;;;;7.40;2.70;;;;;;;17.60;46.59;92732.09;5069612;28;20645;-83
2021/04/02 14:14:52;;;;;;;5.70;2.63;;;;;;;17.90;47.26;92716.66;5069925;28;20052;-82
2021/04/02 14:17:19;;;;;;;4.97;2.28;;;;;;;18.02;46.71;92735.31;5069903;28;20053;-82
2021/04/02 14:19:45;;;;;;;4.57;2.13;;;;;;;17.87;46.64;92733.56;5069926;28;20052;-82
2021/04/02 14:22:12;;;;;;;5.13;2.97;;;;;;;17.59;48.05;92714.97;5065616;28;20056;-83
2021/04/02 14:24:39;;;;;;;4.03;2.20;;;;;;;17.81;47.57;92716.44;5049273;28;20493;-82
2021/04/02 14:27:07;;;;;;;6.45;2.42;;;;;;;17.93;47.37;92715.34;5064401;28;20052;-83
2021/04/02 14:29:34;;;;;;;2.47;1.50;;;;;;;17.73;47.07;92709.97;5068745;28;20505;-82
2021/04/02 14:32:00;;;;;;;5.30;1.83;;;;;;;17.99;46.53;92714.28;5068720;28;20485;-82
2021/04/02 14:34:27;;;;;;;3.65;1.50;;;;;;;17.96;46.72;92704.44;5059048;28;20174;-82
2021/04/02 14:36:54;;;;;;;2.50;1.40;;;;;;;17.42;47.81;92702.31;5049033;28;20052;-82
2021/04/02 14:39:20;;;;;;;4.70;2.08;;;;;;;17.29;48.14;92710.66;5053542;28;20397;-82
2021/04/02 14:41:47;;;;;;;5.70;1.60;;;;;;;17.12;48.31;92705.78;5069474;28;20055;-82
2021/04/02 14:44:13;;;;;;;2.72;1.35;;;;;;;17.19;48.22;92701.06;5069269;28;20060;-82
2021/04/02 14:46:40;;;;;;;3.30;1.83;;;;;;;17.17;48.58;92706.53;5069248;28;20094;-82
2021/04/02 14:49:06;;;;;;;2.55;1.27;;;;;;;16.96;48.47;92700.56;5050655;28;20095;-82
2021/04/02 14:51:32;;;;;;;;;;;;;;;16.75;48.57;92697.97;5068009;28;20040;-82
2021/04/02 14:53:59;;;;;;;3.35;1.75;;;;;;;16.62;49.96;92691.50;5063884;28;20300;-82
2021/04/02 14:56:25;;;;;;;2.97;1.45;;;;;;;16.56;49.22;92692.53;5068192;28;20572;-82
2021/04/02 14:58:52;;;;;;;8.73;2.50;;;;;;;16.58;49.56;92700.84;5068559;28;20553;-82
2021/04/02 15:01:19;;;;;;;5.22;3.08;;;;;;;16.55;49.87;92696.97;5067210;28;20052;-82
2021/04/02 15:03:48;;;;;;;2.80;1.65;;;;;;;16.42;49.89;92703.44;5068272;28;20576;-82
2021/04/02 15:06:15;;;;;;;2.47;1.45;;;;;;;16.46;50.53;92705.50;5064035;28;20559;-82
2021/04/02 15:08:41;;;;;;;2.90;2.08;;;;;;;16.51;49.68;92695.13;5066582;28;20049;-82
2021/04/02 15:11:08;;;;;;;3.67;1.27;;;;;;;16.59;49.24;92694.63;5068868;28;20049;-82
2021/04/02 15:14:04;;;;;;;3.13;1.67;;;;;;;16.50;49.29;92691.00;5068460;28;20066;-82
2021/04/02 15:16:34;;;;;;;2.20;1.38;;;;;;;16.52;49.26;92692.28;5068810;28;20122;-82
2021/04/02 15:19:01;;;;;;;3.35;1.70;;;;;;;16.59;49.41;92689.44;5068535;28;20053;-82
2021/04/02 15:21:27;;;;;;;8.68;3.28;;;;;;;16.60;49.71;92696.19;5068966;28;20048;-82
2021/04/02 15:23:54;;;;;;;4.65;3.50;;;;;;;16.62;49.95;92688.91;5068608;28;20436;-82
2021/04/02 15:26:20;;;;;;;;;;;;;;;16.60;50.12;92688.41;5069335;28;20040;-82
2021/04/02 15:28:46;;;;;;;5.35;2.05;;;;;;;16.59;50.44;92692.03;5068351;28;19966;-83
2021/04/02 15:31:12;;;;;;;5.80;1.98;;;;;;;16.53;49.62;92680.13;5068101;28;20053;-83
2021/04/02 15:33:39;;;;;;;4.28;1.95;;;;;;;16.49;49.98;92690.22;5068543;28;20045;-82
2021/04/02 15:36:07;;;;;;;8.63;3.15;;;;;;;16.39;50.33;92693.56;5068323;28;20049;-82
2021/04/02 15:38:33;;;;;;;10.38;5.15;;;;;;;16.36;50.36;92686.31;5068546;28;20052;-82
2021/04/02 15:40:59;;;;;;;4.13;2.13;;;;;;;16.26;50.77;92691.50;5071953;28;20051;-83
2021/04/02 15:43:25;;;;;;;;;;;;;;;16.10;50.46;92691.47;5072247;28;20046;-83
2021/04/02 15:45:52;;;;;;;11.52;4.97;;;;;;;15.93;50.77;92690.91;5072329;28;19924;-82
2021/04/02 15:48:19;;;;;;;;;;;;;;;15.74;51.76;92704.31;5072792;28;20090;-82
2021/04/02 15:50:45;;;;;;;16.35;3.85;;;;;;;15.53;51.94;92706.03;5071762;28;20467;-83
2021/04/02 15:53:12;;;;;;;8.68;3.22;;;;;;;15.45;52.27;92705.47;5072216;28;20412;-82
2021/04/02 15:55:39;;;;;;;10.35;4.30;;;;;;;15.34;52.43;92707.25;5072045;28;20513;-82
2021/04/02 15:58:05;;;;;;;10.95;3.72;;;;;;;15.31;52.52;92704.38;5071744;28;20045;-85
2021/04/02 16:00:31;;;;;;;;;;;;;;;15.30;52.69;92711.38;5072039;28;20048;-84
2021/04/02 16:02:59;;;;;;;10.02;3.45;;;;;;;15.23;53.38;92703.81;5071518;28;19924;-84
2021/04/02 16:05:26;;;;;;;4.10;2.22;;;;;;;15.14;53.27;92705.31;5071268;28;20051;-84
2021/04/02 16:07:53;;;;;;;3.25;2.20;;;;;;;14.76;53.64;92658.81;5071617;28;20118;-85
2021/04/02 16:10:24;;;;;;;15.15;5.30;;;;;;;15.03;54.22;92714.03;5071861;28;20420;-83
2021/04/02 16:12:54;;;;;;;7.95;3.47;;;;;;;14.98;54.52;92706.25;5071537;28;20513;-84
2021/04/02 16:15:22;;;;;;;5.13;3.30;;;;;;;14.95;54.92;92716.06;5071519;28;20685;-83
2021/04/02 16:17:48;;;;;;;10.00;4.10;;;;;;;14.98;55.76;92717.38;5071854;28;20052;-84
2021/04/02 16:20:14;;;;;;;;;;;;;;;15.04;55.42;92718.97;5072221;28;20052;-83
2021/04/02 16:22:41;;;;;;;18.42;5.47;;;;;;;15.04;55.66;92718.22;5071231;28;19927;-83
2021/04/02 16:25:09;;;;;;;7.13;4.15;;;;;;;15.04;55.79;92721.56;5071160;28;20512;-83
2021/04/02 16:27:37;;;;;;;8.82;4.63;;;;;;;15.12;55.89;92722.09;5071269;28;20149;-83
2021/04/02 16:30:05;;;;;;;19.60;5.63;;;;;;;15.02;56.37;92694.38;5071419;28;20087;-83
2021/04/02 16:32:32;;;;;;;17.10;5.82;;;;;;;15.20;55.25;92724.25;5071045;28;20044;-83
2021/04/02 16:34:58;;;;;;;17.58;5.80;;;;;;;15.03;55.22;92712.25;5071549;28;20049;-83
2021/04/02 16:37:25;;;;;;;;;;;;;;;15.09;54.73;92728.59;5071473;28;20059;-83
2021/04/02 16:39:51;;;;;;;6.00;2.90;;;;;;;15.01;53.90;92729.81;5071200;28;20027;-83
2021/04/02 16:42:17;;;;;;;16.27;5.03;;;;;;;15.00;54.94;92730.06;5071158;28;20094;-83